sensor_id;sensor_type;location;lat;lon;timestamp;P1;durP1;ratioP1;P2;durP2;ratioP2
49177;SDS011;35016;55.674;37.468;2023-05-10T00:01:50;8.30;;;3.60;;
49177;SDS011;35016;55.674;37.468;2023-05-10T00:04:17;10.88;;;3.65;;
49177;SDS011;35016;55.674;37.468;2023-05-10T00:06:44;10.10;;;3.60;;
49177;SDS011;35016;55.674;37.468;2023-05-10T00:09:11;10.30;;;3.67;;
49177;SDS011;35016;55.674;37.468;2023-05-10T00:11:38;8.70;;;3.28;;
49177;SDS011;35016;55.674;37.468;2023-05-10T00:14:05;8.82;;;3.63;;
49177;SDS011;35016;55.674;37.468;2023-05-10T00:16:32;8.13;;;4.20;;
49177;SDS011;35016;55.674;37.468;2023-05-10T00:19:00;9.65;;;3.53;;
49177;SDS011;35016;55.674;37.468;2023-05-10T00:21:27;10.07;;;4.45;;
49177;SDS011;35016;55.674;37.468;2023-05-10T00:23:55;11.82;;;4.53;;
49177;SDS011;35016;55.674;37.468;2023-05-10T00:26:22;8.68;;;3.50;;
49177;SDS011;35016;55.674;37.468;2023-05-10T00:28:51;8.02;;;3.42;;
49177;SDS011;35016;55.674;37.468;2023-05-10T00:31:19;8.63;;;4.10;;
49177;SDS011;35016;55.674;37.468;2023-05-10T00:33:46;9.18;;;3.80;;
49177;SDS011;35016;55.674;37.468;2023-05-10T00:36:13;9.32;;;3.85;;
49177;SDS011;35016;55.674;37.468;2023-05-10T00:38:40;7.55;;;3.72;;
49177;SDS011;35016;55.674;37.468;2023-05-10T00:41:07;8.73;;;3.60;;
49177;SDS011;35016;55.674;37.468;2023-05-10T00:43:37;10.35;;;3.38;;
49177;SDS011;35016;55.674;37.468;2023-05-10T00:46:04;9.23;;;3.22;;
49177;SDS011;35016;55.674;37.468;2023-05-10T00:48:32;8.73;;;4.00;;
49177;SDS011;35016;55.674;37.468;2023-05-10T00:51:01;10.20;;;3.40;;
49177;SDS011;35016;55.674;37.468;2023-05-10T00:53:29;7.53;;;3.15;;
49177;SDS011;35016;55.674;37.468;2023-05-10T00:55:59;8.57;;;2.92;;
49177;SDS011;35016;55.674;37.468;2023-05-10T00:58:26;8.88;;;2.85;;
49177;SDS011;35016;55.674;37.468;2023-05-10T01:00:55;7.85;;;3.28;;
49177;SDS011;35016;55.674;37.468;2023-05-10T01:03:25;8.65;;;3.20;;
49177;SDS011;35016;55.674;37.468;2023-05-10T01:05:52;8.18;;;3.60;;
49177;SDS011;35016;55.674;37.468;2023-05-10T01:08:20;7.88;;;3.35;;
49177;SDS011;35016;55.674;37.468;2023-05-10T01:10:49;7.88;;;3.00;;
49177;SDS011;35016;55.674;37.468;2023-05-10T01:16:17;7.65;;;2.65;;
49177;SDS011;35016;55.674;37.468;2023-05-10T01:18:44;10.95;;;3.70;;
49177;SDS011;35016;55.674;37.468;2023-05-10T01:23:57;8.70;;;2.90;;
49177;SDS011;35016;55.674;37.468;2023-05-10T01:34:48;7.88;;;3.10;;
49177;SDS011;35016;55.674;37.468;2023-05-10T01:37:29;6.32;;;2.35;;
49177;SDS011;35016;55.674;37.468;2023-05-10T01:43:03;8.23;;;2.95;;
49177;SDS011;35016;55.674;37.468;2023-05-10T01:45:41;9.10;;;3.03;;
49177;SDS011;35016;55.674;37.468;2023-05-10T01:48:40;10.30;;;3.63;;
49177;SDS011;35016;55.674;37.468;2023-05-10T01:51:17;7.85;;;3.33;;
49177;SDS011;35016;55.674;37.468;2023-05-10T01:53:49;6.45;;;2.67;;
49177;SDS011;35016;55.674;37.468;2023-05-10T01:56:24;8.25;;;2.78;;
49177;SDS011;35016;55.674;37.468;2023-05-10T01:58:53;7.38;;;2.63;;
49177;SDS011;35016;55.674;37.468;2023-05-10T02:01:22;10.02;;;2.80;;
49177;SDS011;35016;55.674;37.468;2023-05-10T02:03:50;7.90;;;3.00;;
49177;SDS011;35016;55.674;37.468;2023-05-10T02:06:20;7.97;;;3.45;;
49177;SDS011;35016;55.674;37.468;2023-05-10T02:08:50;7.32;;;2.58;;
49177;SDS011;35016;55.674;37.468;2023-05-10T02:11:19;6.88;;;2.78;;
49177;SDS011;35016;55.674;37.468;2023-05-10T02:13:49;7.85;;;3.38;;
49177;SDS011;35016;55.674;37.468;2023-05-10T02:16:18;8.63;;;3.40;;
49177;SDS011;35016;55.674;37.468;2023-05-10T02:18:50;9.05;;;3.38;;
49177;SDS011;35016;55.674;37.468;2023-05-10T02:21:20;8.80;;;3.15;;
49177;SDS011;35016;55.674;37.468;2023-05-10T02:23:48;7.50;;;2.75;;
49177;SDS011;35016;55.674;37.468;2023-05-10T02:26:18;8.02;;;2.47;;
49177;SDS011;35016;55.674;37.468;2023-05-10T02:28:48;6.45;;;2.30;;
49177;SDS011;35016;55.674;37.468;2023-05-10T02:31:17;8.32;;;3.47;;
49177;SDS011;35016;55.674;37.468;2023-05-10T02:33:45;9.52;;;2.55;;
49177;SDS011;35016;55.674;37.468;2023-05-10T02:36:13;7.97;;;2.85;;
49177;SDS011;35016;55.674;37.468;2023-05-10T02:38:42;6.43;;;2.50;;
49177;SDS011;35016;55.674;37.468;2023-05-10T02:41:11;6.00;;;2.53;;
49177;SDS011;35016;55.674;37.468;2023-05-10T02:43:38;8.75;;;2.97;;
49177;SDS011;35016;55.674;37.468;2023-05-10T02:46:07;5.95;;;2.30;;
49177;SDS011;35016;55.674;37.468;2023-05-10T02:48:35;8.52;;;2.83;;
49177;SDS011;35016;55.674;37.468;2023-05-10T02:51:04;5.20;;;1.65;;
49177;SDS011;35016;55.674;37.468;2023-05-10T02:53:34;7.15;;;2.28;;
49177;SDS011;35016;55.674;37.468;2023-05-10T02:56:04;7.20;;;2.35;;
49177;SDS011;35016;55.674;37.468;2023-05-10T02:58:36;8.73;;;3.03;;
49177;SDS011;35016;55.674;37.468;2023-05-10T03:01:03;7.57;;;2.90;;
49177;SDS011;35016;55.674;37.468;2023-05-10T03:03:30;7.15;;;2.75;;
49177;SDS011;35016;55.674;37.468;2023-05-10T03:05:58;8.30;;;2.33;;
49177;SDS011;35016;55.674;37.468;2023-05-10T03:08:25;6.68;;;2.40;;
49177;SDS011;35016;55.674;37.468;2023-05-10T03:12:00;7.38;;;2.95;;
49177;SDS011;35016;55.674;37.468;2023-05-10T03:14:10;8.95;;;2.70;;
49177;SDS011;35016;55.674;37.468;2023-05-10T03:17:07;8.57;;;3.08;;
49177;SDS011;35016;55.674;37.468;2023-05-10T03:22:10;5.57;;;2.03;;
49177;SDS011;35016;55.674;37.468;2023-05-10T03:24:39;7.70;;;2.55;;
49177;SDS011;35016;55.674;37.468;2023-05-10T03:27:09;7.78;;;3.58;;
49177;SDS011;35016;55.674;37.468;2023-05-10T03:29:37;8.35;;;3.35;;
49177;SDS011;35016;55.674;37.468;2023-05-10T03:32:06;7.00;;;2.22;;
49177;SDS011;35016;55.674;37.468;2023-05-10T03:34:33;6.32;;;2.58;;
49177;SDS011;35016;55.674;37.468;2023-05-10T03:37:00;7.97;;;2.70;;
49177;SDS011;35016;55.674;37.468;2023-05-10T03:39:30;8.07;;;2.70;;
49177;SDS011;35016;55.674;37.468;2023-05-10T03:41:59;10.52;;;3.83;;
49177;SDS011;35016;55.674;37.468;2023-05-10T03:44:26;9.60;;;3.55;;
49177;SDS011;35016;55.674;37.468;2023-05-10T03:46:53;10.25;;;3.63;;
49177;SDS011;35016;55.674;37.468;2023-05-10T03:49:21;8.93;;;3.63;;
49177;SDS011;35016;55.674;37.468;2023-05-10T03:51:48;7.38;;;2.90;;
49177;SDS011;35016;55.674;37.468;2023-05-10T03:54:15;8.57;;;2.53;;
49177;SDS011;35016;55.674;37.468;2023-05-10T03:56:42;6.82;;;2.30;;
49177;SDS011;35016;55.674;37.468;2023-05-10T03:59:09;10.73;;;3.15;;
49177;SDS011;35016;55.674;37.468;2023-05-10T04:01:36;10.00;;;3.03;;
49177;SDS011;35016;55.674;37.468;2023-05-10T04:04:04;8.82;;;2.85;;
49177;SDS011;35016;55.674;37.468;2023-05-10T04:06:31;7.25;;;2.92;;
49177;SDS011;35016;55.674;37.468;2023-05-10T04:08:58;8.23;;;3.28;;
49177;SDS011;35016;55.674;37.468;2023-05-10T04:11:27;6.97;;;2.70;;
49177;SDS011;35016;55.674;37.468;2023-05-10T04:13:54;7.30;;;2.90;;
49177;SDS011;35016;55.674;37.468;2023-05-10T04:16:21;9.60;;;3.03;;
49177;SDS011;35016;55.674;37.468;2023-05-10T04:18:48;7.43;;;3.20;;
49177;SDS011;35016;55.674;37.468;2023-05-10T04:21:16;9.15;;;3.40;;
49177;SDS011;35016;55.674;37.468;2023-05-10T04:23:43;9.35;;;2.72;;
49177;SDS011;35016;55.674;37.468;2023-05-10T04:26:10;6.80;;;2.45;;
49177;SDS011;35016;55.674;37.468;2023-05-10T04:28:37;10.57;;;3.05;;
49177;SDS011;35016;55.674;37.468;2023-05-10T04:31:05;9.57;;;3.10;;
49177;SDS011;35016;55.674;37.468;2023-05-10T04:33:33;8.60;;;3.50;;
49177;SDS011;35016;55.674;37.468;2023-05-10T04:36:02;7.10;;;2.55;;
49177;SDS011;35016;55.674;37.468;2023-05-10T04:38:30;7.93;;;3.08;;
49177;SDS011;35016;55.674;37.468;2023-05-10T04:41:03;6.82;;;2.97;;
49177;SDS011;35016;55.674;37.468;2023-05-10T04:43:31;9.85;;;3.60;;
49177;SDS011;35016;55.674;37.468;2023-05-10T04:45:59;6.30;;;2.65;;
49177;SDS011;35016;55.674;37.468;2023-05-10T04:48:26;9.38;;;3.28;;
49177;SDS011;35016;55.674;37.468;2023-05-10T04:50:53;8.35;;;2.70;;
49177;SDS011;35016;55.674;37.468;2023-05-10T04:53:21;12.68;;;2.85;;
49177;SDS011;35016;55.674;37.468;2023-05-10T04:55:48;9.68;;;3.17;;
49177;SDS011;35016;55.674;37.468;2023-05-10T04:58:15;8.27;;;2.88;;
49177;SDS011;35016;55.674;37.468;2023-05-10T05:00:42;7.00;;;2.38;;
49177;SDS011;35016;55.674;37.468;2023-05-10T05:03:10;8.02;;;3.25;;
49177;SDS011;35016;55.674;37.468;2023-05-10T05:05:38;7.03;;;3.08;;
49177;SDS011;35016;55.674;37.468;2023-05-10T05:08:05;11.38;;;3.08;;
49177;SDS011;35016;55.674;37.468;2023-05-10T05:10:32;7.43;;;3.33;;
49177;SDS011;35016;55.674;37.468;2023-05-10T05:12:59;9.38;;;3.53;;
49177;SDS011;35016;55.674;37.468;2023-05-10T05:15:27;9.38;;;3.22;;
49177;SDS011;35016;55.674;37.468;2023-05-10T05:17:54;8.20;;;3.03;;
49177;SDS011;35016;55.674;37.468;2023-05-10T05:20:21;8.55;;;3.42;;
49177;SDS011;35016;55.674;37.468;2023-05-10T05:22:48;10.38;;;2.85;;
49177;SDS011;35016;55.674;37.468;2023-05-10T05:25:15;7.57;;;2.95;;
49177;SDS011;35016;55.674;37.468;2023-05-10T05:27:43;8.38;;;3.13;;
49177;SDS011;35016;55.674;37.468;2023-05-10T05:30:10;9.38;;;3.33;;
49177;SDS011;35016;55.674;37.468;2023-05-10T05:32:37;7.82;;;2.80;;
49177;SDS011;35016;55.674;37.468;2023-05-10T05:35:05;8.73;;;2.40;;
49177;SDS011;35016;55.674;37.468;2023-05-10T05:37:32;7.55;;;2.72;;
49177;SDS011;35016;55.674;37.468;2023-05-10T05:39:59;6.88;;;2.28;;
49177;SDS011;35016;55.674;37.468;2023-05-10T05:42:30;7.40;;;3.03;;
49177;SDS011;35016;55.674;37.468;2023-05-10T05:44:58;5.72;;;2.50;;
49177;SDS011;35016;55.674;37.468;2023-05-10T05:47:25;6.82;;;2.75;;
49177;SDS011;35016;55.674;37.468;2023-05-10T05:49:52;7.82;;;3.03;;
49177;SDS011;35016;55.674;37.468;2023-05-10T05:52:19;7.85;;;2.60;;
49177;SDS011;35016;55.674;37.468;2023-05-10T05:54:47;6.03;;;2.10;;
49177;SDS011;35016;55.674;37.468;2023-05-10T05:57:15;7.03;;;2.10;;
49177;SDS011;35016;55.674;37.468;2023-05-10T05:59:42;6.75;;;2.03;;
49177;SDS011;35016;55.674;37.468;2023-05-10T06:02:10;8.00;;;2.03;;
49177;SDS011;35016;55.674;37.468;2023-05-10T06:04:38;5.57;;;2.35;;
49177;SDS011;35016;55.674;37.468;2023-05-10T06:07:10;5.90;;;2.10;;
49177;SDS011;35016;55.674;37.468;2023-05-10T06:09:37;8.07;;;2.03;;
49177;SDS011;35016;55.674;37.468;2023-05-10T06:12:04;5.10;;;2.00;;
49177;SDS011;35016;55.674;37.468;2023-05-10T06:14:31;5.85;;;2.10;;
49177;SDS011;35016;55.674;37.468;2023-05-10T06:16:59;4.35;;;1.25;;
49177;SDS011;35016;55.674;37.468;2023-05-10T06:19:26;5.75;;;1.83;;
49177;SDS011;35016;55.674;37.468;2023-05-10T06:21:53;4.57;;;1.42;;
49177;SDS011;35016;55.674;37.468;2023-05-10T06:24:21;4.22;;;1.27;;
49177;SDS011;35016;55.674;37.468;2023-05-10T06:26:48;5.32;;;1.70;;
49177;SDS011;35016;55.674;37.468;2023-05-10T06:29:16;5.38;;;1.60;;
49177;SDS011;35016;55.674;37.468;2023-05-10T06:31:44;6.75;;;2.38;;
49177;SDS011;35016;55.674;37.468;2023-05-10T06:34:11;5.85;;;2.22;;
49177;SDS011;35016;55.674;37.468;2023-05-10T06:36:38;6.85;;;1.73;;
49177;SDS011;35016;55.674;37.468;2023-05-10T06:39:05;5.13;;;1.55;;
49177;SDS011;35016;55.674;37.468;2023-05-10T06:41:33;5.78;;;1.65;;
49177;SDS011;35016;55.674;37.468;2023-05-10T06:44:00;4.22;;;1.55;;
49177;SDS011;35016;55.674;37.468;2023-05-10T06:46:27;4.25;;;1.45;;
49177;SDS011;35016;55.674;37.468;2023-05-10T06:48:55;5.45;;;1.42;;
49177;SDS011;35016;55.674;37.468;2023-05-10T06:51:22;4.13;;;1.27;;
49177;SDS011;35016;55.674;37.468;2023-05-10T06:53:49;10.98;;;1.90;;
49177;SDS011;35016;55.674;37.468;2023-05-10T06:56:16;4.70;;;1.55;;
49177;SDS011;35016;55.674;37.468;2023-05-10T06:58:43;5.35;;;1.52;;
49177;SDS011;35016;55.674;37.468;2023-05-10T07:01:11;4.22;;;1.33;;
49177;SDS011;35016;55.674;37.468;2023-05-10T07:03:38;5.20;;;1.50;;
49177;SDS011;35016;55.674;37.468;2023-05-10T07:06:05;4.47;;;1.63;;
49177;SDS011;35016;55.674;37.468;2023-05-10T07:08:44;5.00;;;1.70;;
49177;SDS011;35016;55.674;37.468;2023-05-10T07:11:11;4.18;;;1.35;;
49177;SDS011;35016;55.674;37.468;2023-05-10T07:13:38;4.07;;;1.52;;
49177;SDS011;35016;55.674;37.468;2023-05-10T07:16:08;5.32;;;1.60;;
49177;SDS011;35016;55.674;37.468;2023-05-10T07:18:35;6.50;;;1.42;;
49177;SDS011;35016;55.674;37.468;2023-05-10T07:21:03;6.13;;;1.92;;
49177;SDS011;35016;55.674;37.468;2023-05-10T07:23:30;9.15;;;2.05;;
49177;SDS011;35016;55.674;37.468;2023-05-10T07:26:00;5.18;;;1.60;;
49177;SDS011;35016;55.674;37.468;2023-05-10T07:28:28;6.15;;;1.88;;
49177;SDS011;35016;55.674;37.468;2023-05-10T07:30:58;6.30;;;2.25;;
49177;SDS011;35016;55.674;37.468;2023-05-10T07:33:25;5.35;;;1.58;;
49177;SDS011;35016;55.674;37.468;2023-05-10T07:35:54;7.10;;;2.28;;
49177;SDS011;35016;55.674;37.468;2023-05-10T07:38:22;5.78;;;1.58;;
49177;SDS011;35016;55.674;37.468;2023-05-10T07:40:50;7.47;;;2.03;;
49177;SDS011;35016;55.674;37.468;2023-05-10T07:43:17;5.80;;;2.03;;
49177;SDS011;35016;55.674;37.468;2023-05-10T07:45:44;6.00;;;1.60;;
49177;SDS011;35016;55.674;37.468;2023-05-10T07:48:11;5.07;;;1.60;;
49177;SDS011;35016;55.674;37.468;2023-05-10T07:50:38;5.65;;;1.92;;
49177;SDS011;35016;55.674;37.468;2023-05-10T07:53:05;4.53;;;1.27;;
49177;SDS011;35016;55.674;37.468;2023-05-10T07:55:33;7.32;;;1.65;;
49177;SDS011;35016;55.674;37.468;2023-05-10T07:58:00;6.25;;;2.08;;
49177;SDS011;35016;55.674;37.468;2023-05-10T08:00:30;6.10;;;1.75;;
49177;SDS011;35016;55.674;37.468;2023-05-10T08:02:58;5.32;;;1.88;;
49177;SDS011;35016;55.674;37.468;2023-05-10T08:05:26;5.95;;;1.75;;
49177;SDS011;35016;55.674;37.468;2023-05-10T08:07:53;6.55;;;1.77;;
49177;SDS011;35016;55.674;37.468;2023-05-10T08:10:20;5.07;;;1.40;;
49177;SDS011;35016;55.674;37.468;2023-05-10T08:12:50;8.80;;;2.10;;
49177;SDS011;35016;55.674;37.468;2023-05-10T08:15:17;4.60;;;1.67;;
49177;SDS011;35016;55.674;37.468;2023-05-10T08:17:45;6.30;;;1.60;;
49177;SDS011;35016;55.674;37.468;2023-05-10T08:20:12;3.20;;;1.20;;
49177;SDS011;35016;55.674;37.468;2023-05-10T08:22:43;5.32;;;1.63;;
49177;SDS011;35016;55.674;37.468;2023-05-10T08:25:10;5.65;;;1.80;;
49177;SDS011;35016;55.674;37.468;2023-05-10T08:27:37;5.07;;;1.55;;
49177;SDS011;35016;55.674;37.468;2023-05-10T08:30:04;4.28;;;1.70;;
49177;SDS011;35016;55.674;37.468;2023-05-10T08:32:32;6.85;;;1.48;;
49177;SDS011;35016;55.674;37.468;2023-05-10T08:35:01;7.75;;;1.92;;
49177;SDS011;35016;55.674;37.468;2023-05-10T08:37:30;5.22;;;1.50;;
49177;SDS011;35016;55.674;37.468;2023-05-10T08:39:58;5.72;;;2.30;;
49177;SDS011;35016;55.674;37.468;2023-05-10T08:42:27;5.95;;;1.45;;
49177;SDS011;35016;55.674;37.468;2023-05-10T08:44:57;5.13;;;1.60;;
49177;SDS011;35016;55.674;37.468;2023-05-10T08:47:26;5.13;;;1.85;;
49177;SDS011;35016;55.674;37.468;2023-05-10T08:49:54;5.00;;;1.58;;
49177;SDS011;35016;55.674;37.468;2023-05-10T08:52:22;5.55;;;2.05;;
49177;SDS011;35016;55.674;37.468;2023-05-10T08:54:53;6.03;;;1.50;;
49177;SDS011;35016;55.674;37.468;2023-05-10T08:57:20;5.20;;;1.40;;
49177;SDS011;35016;55.674;37.468;2023-05-10T08:59:47;6.53;;;2.17;;
49177;SDS011;35016;55.674;37.468;2023-05-10T09:02:19;4.68;;;1.38;;
49177;SDS011;35016;55.674;37.468;2023-05-10T09:04:47;6.32;;;2.05;;
49177;SDS011;35016;55.674;37.468;2023-05-10T09:07:15;7.32;;;2.05;;
49177;SDS011;35016;55.674;37.468;2023-05-10T09:09:43;5.10;;;1.73;;
49177;SDS011;35016;55.674;37.468;2023-05-10T09:12:12;4.20;;;1.58;;
49177;SDS011;35016;55.674;37.468;2023-05-10T09:14:43;5.25;;;1.52;;
49177;SDS011;35016;55.674;37.468;2023-05-10T09:17:14;3.65;;;1.35;;
49177;SDS011;35016;55.674;37.468;2023-05-10T09:19:41;5.50;;;1.52;;
49177;SDS011;35016;55.674;37.468;2023-05-10T09:22:09;8.55;;;1.85;;
49177;SDS011;35016;55.674;37.468;2023-05-10T09:24:37;4.63;;;1.20;;
49177;SDS011;35016;55.674;37.468;2023-05-10T09:27:08;3.40;;;1.15;;
49177;SDS011;35016;55.674;37.468;2023-05-10T09:29:41;5.53;;;1.80;;
49177;SDS011;35016;55.674;37.468;2023-05-10T09:34:39;2.97;;;1.13;;
49177;SDS011;35016;55.674;37.468;2023-05-10T09:37:07;6.05;;;1.75;;
49177;SDS011;35016;55.674;37.468;2023-05-10T09:40:21;5.55;;;1.63;;
49177;SDS011;35016;55.674;37.468;2023-05-10T09:43:00;5.40;;;1.73;;
49177;SDS011;35016;55.674;37.468;2023-05-10T09:45:40;4.38;;;1.45;;
49177;SDS011;35016;55.674;37.468;2023-05-10T09:48:13;3.90;;;1.20;;
49177;SDS011;35016;55.674;37.468;2023-05-10T09:50:40;4.13;;;1.65;;
49177;SDS011;35016;55.674;37.468;2023-05-10T09:53:08;4.65;;;1.27;;
49177;SDS011;35016;55.674;37.468;2023-05-10T09:58:02;7.72;;;1.98;;
49177;SDS011;35016;55.674;37.468;2023-05-10T10:00:36;5.78;;;1.73;;
49177;SDS011;35016;55.674;37.468;2023-05-10T10:03:05;4.60;;;1.38;;
49177;SDS011;35016;55.674;37.468;2023-05-10T10:05:39;5.63;;;1.98;;
49177;SDS011;35016;55.674;37.468;2023-05-10T10:08:09;5.32;;;1.80;;
49177;SDS011;35016;55.674;37.468;2023-05-10T10:10:37;4.40;;;1.33;;
49177;SDS011;35016;55.674;37.468;2023-05-10T10:13:07;4.70;;;1.92;;
49177;SDS011;35016;55.674;37.468;2023-05-10T10:15:35;5.43;;;1.80;;
49177;SDS011;35016;55.674;37.468;2023-05-10T10:18:02;4.57;;;1.90;;
49177;SDS011;35016;55.674;37.468;2023-05-10T10:20:31;4.93;;;2.03;;
49177;SDS011;35016;55.674;37.468;2023-05-10T10:22:58;6.60;;;2.05;;
49177;SDS011;35016;55.674;37.468;2023-05-10T10:25:25;6.68;;;2.70;;
49177;SDS011;35016;55.674;37.468;2023-05-10T10:35:54;5.38;;;1.80;;
49177;SDS011;35016;55.674;37.468;2023-05-10T10:38:24;5.47;;;1.88;;
49177;SDS011;35016;55.674;37.468;2023-05-10T10:41:39;3.85;;;1.70;;
49177;SDS011;35016;55.674;37.468;2023-05-10T10:49:42;4.97;;;1.63;;
49177;SDS011;35016;55.674;37.468;2023-05-10T10:52:31;6.30;;;2.10;;
49177;SDS011;35016;55.674;37.468;2023-05-10T11:05:25;8.20;;;2.25;;
49177;SDS011;35016;55.674;37.468;2023-05-10T11:13:33;6.45;;;2.50;;
49177;SDS011;35016;55.674;37.468;2023-05-10T11:19:17;6.63;;;2.15;;
49177;SDS011;35016;55.674;37.468;2023-05-10T11:21:47;6.93;;;2.47;;
49177;SDS011;35016;55.674;37.468;2023-05-10T11:24:17;7.15;;;2.42;;
49177;SDS011;35016;55.674;37.468;2023-05-10T11:26:45;10.07;;;2.28;;
49177;SDS011;35016;55.674;37.468;2023-05-10T11:29:16;7.35;;;2.30;;
49177;SDS011;35016;55.674;37.468;2023-05-10T11:31:43;6.70;;;2.17;;
49177;SDS011;35016;55.674;37.468;2023-05-10T11:34:24;7.80;;;2.50;;
49177;SDS011;35016;55.674;37.468;2023-05-10T11:36:53;6.88;;;2.28;;
49177;SDS011;35016;55.674;37.468;2023-05-10T11:39:25;7.82;;;2.70;;
49177;SDS011;35016;55.674;37.468;2023-05-10T11:41:54;5.30;;;2.35;;
49177;SDS011;35016;55.674;37.468;2023-05-10T11:44:21;10.45;;;3.05;;
49177;SDS011;35016;55.674;37.468;2023-05-10T11:46:48;6.10;;;1.90;;
49177;SDS011;35016;55.674;37.468;2023-05-10T11:49:16;6.57;;;2.45;;
49177;SDS011;35016;55.674;37.468;2023-05-10T11:51:44;8.25;;;2.47;;
49177;SDS011;35016;55.674;37.468;2023-05-10T11:54:13;6.90;;;2.03;;
49177;SDS011;35016;55.674;37.468;2023-05-10T11:56:40;10.20;;;2.70;;
49177;SDS011;35016;55.674;37.468;2023-05-10T11:59:07;7.50;;;2.65;;
49177;SDS011;35016;55.674;37.468;2023-05-10T12:01:35;7.10;;;2.83;;
49177;SDS011;35016;55.674;37.468;2023-05-10T12:04:03;6.68;;;2.47;;
49177;SDS011;35016;55.674;37.468;2023-05-10T12:06:31;7.15;;;2.72;;
49177;SDS011;35016;55.674;37.468;2023-05-10T12:08:59;8.77;;;2.63;;
49177;SDS011;35016;55.674;37.468;2023-05-10T12:11:38;6.63;;;2.60;;
49177;SDS011;35016;55.674;37.468;2023-05-10T12:14:10;7.07;;;2.35;;
49177;SDS011;35016;55.674;37.468;2023-05-10T12:16:38;8.63;;;2.50;;
49177;SDS011;35016;55.674;37.468;2023-05-10T12:19:05;7.05;;;2.22;;
49177;SDS011;35016;55.674;37.468;2023-05-10T12:21:32;6.78;;;2.28;;
49177;SDS011;35016;55.674;37.468;2023-05-10T12:24:03;5.97;;;2.10;;
49177;SDS011;35016;55.674;37.468;2023-05-10T12:26:31;5.75;;;2.40;;
49177;SDS011;35016;55.674;37.468;2023-05-10T12:31:58;5.53;;;1.90;;
49177;SDS011;35016;55.674;37.468;2023-05-10T12:34:35;7.50;;;2.55;;
49177;SDS011;35016;55.674;37.468;2023-05-10T12:37:03;6.63;;;2.03;;
49177;SDS011;35016;55.674;37.468;2023-05-10T12:39:38;9.90;;;3.38;;
49177;SDS011;35016;55.674;37.468;2023-05-10T12:42:11;5.97;;;2.22;;
49177;SDS011;35016;55.674;37.468;2023-05-10T12:44:39;5.57;;;1.77;;
49177;SDS011;35016;55.674;37.468;2023-05-10T12:47:06;5.78;;;1.70;;
49177;SDS011;35016;55.674;37.468;2023-05-10T12:49:34;6.03;;;2.00;;
49177;SDS011;35016;55.674;37.468;2023-05-10T12:52:01;5.38;;;2.10;;
49177;SDS011;35016;55.674;37.468;2023-05-10T12:54:29;7.30;;;2.40;;
49177;SDS011;35016;55.674;37.468;2023-05-10T12:56:56;6.57;;;2.03;;
49177;SDS011;35016;55.674;37.468;2023-05-10T12:59:23;4.55;;;1.63;;
49177;SDS011;35016;55.674;37.468;2023-05-10T13:01:53;5.50;;;1.88;;
49177;SDS011;35016;55.674;37.468;2023-05-10T13:04:20;5.75;;;2.10;;
49177;SDS011;35016;55.674;37.468;2023-05-10T13:06:47;7.82;;;2.35;;
49177;SDS011;35016;55.674;37.468;2023-05-10T13:09:14;6.80;;;2.25;;
49177;SDS011;35016;55.674;37.468;2023-05-10T13:11:42;7.10;;;2.20;;
49177;SDS011;35016;55.674;37.468;2023-05-10T13:14:09;6.55;;;2.03;;
49177;SDS011;35016;55.674;37.468;2023-05-10T13:16:36;6.53;;;2.75;;
49177;SDS011;35016;55.674;37.468;2023-05-10T13:19:03;9.77;;;3.03;;
49177;SDS011;35016;55.674;37.468;2023-05-10T13:21:30;8.50;;;1.77;;
49177;SDS011;35016;55.674;37.468;2023-05-10T13:23:57;7.22;;;2.08;;
49177;SDS011;35016;55.674;37.468;2023-05-10T13:26:24;5.90;;;1.83;;
49177;SDS011;35016;55.674;37.468;2023-05-10T13:28:52;5.75;;;1.48;;
49177;SDS011;35016;55.674;37.468;2023-05-10T13:31:19;6.65;;;2.05;;
49177;SDS011;35016;55.674;37.468;2023-05-10T13:33:47;7.78;;;2.53;;
49177;SDS011;35016;55.674;37.468;2023-05-10T13:36:14;5.28;;;1.88;;
49177;SDS011;35016;55.674;37.468;2023-05-10T13:38:41;5.97;;;2.03;;
49177;SDS011;35016;55.674;37.468;2023-05-10T13:41:08;5.35;;;1.88;;
49177;SDS011;35016;55.674;37.468;2023-05-10T13:43:35;7.05;;;2.15;;
49177;SDS011;35016;55.674;37.468;2023-05-10T13:46:03;7.03;;;2.00;;
49177;SDS011;35016;55.674;37.468;2023-05-10T13:48:30;5.88;;;2.35;;
49177;SDS011;35016;55.674;37.468;2023-05-10T13:50:57;5.45;;;2.08;;
49177;SDS011;35016;55.674;37.468;2023-05-10T13:53:26;5.00;;;1.50;;
49177;SDS011;35016;55.674;37.468;2023-05-10T13:55:53;4.85;;;1.77;;
49177;SDS011;35016;55.674;37.468;2023-05-10T13:58:21;5.45;;;1.95;;
49177;SDS011;35016;55.674;37.468;2023-05-10T14:00:48;9.27;;;2.90;;
49177;SDS011;35016;55.674;37.468;2023-05-10T14:03:15;7.35;;;2.55;;
49177;SDS011;35016;55.674;37.468;2023-05-10T14:05:45;6.40;;;2.30;;
49177;SDS011;35016;55.674;37.468;2023-05-10T14:08:12;7.78;;;2.40;;
49177;SDS011;35016;55.674;37.468;2023-05-10T14:10:39;7.88;;;1.95;;
49177;SDS011;35016;55.674;37.468;2023-05-10T14:13:07;6.43;;;2.20;;
49177;SDS011;35016;55.674;37.468;2023-05-10T14:15:34;6.45;;;1.75;;
49177;SDS011;35016;55.674;37.468;2023-05-10T14:18:01;6.65;;;2.15;;
49177;SDS011;35016;55.674;37.468;2023-05-10T14:20:29;5.15;;;1.63;;
49177;SDS011;35016;55.674;37.468;2023-05-10T14:22:56;6.97;;;2.17;;
49177;SDS011;35016;55.674;37.468;2023-05-10T14:25:23;5.40;;;1.75;;
49177;SDS011;35016;55.674;37.468;2023-05-10T14:27:51;8.35;;;2.50;;
49177;SDS011;35016;55.674;37.468;2023-05-10T14:30:20;5.78;;;2.20;;
49177;SDS011;35016;55.674;37.468;2023-05-10T14:32:47;9.48;;;2.40;;
49177;SDS011;35016;55.674;37.468;2023-05-10T14:35:15;8.43;;;3.35;;
49177;SDS011;35016;55.674;37.468;2023-05-10T14:37:45;7.13;;;2.30;;
49177;SDS011;35016;55.674;37.468;2023-05-10T14:40:15;6.28;;;2.60;;
49177;SDS011;35016;55.674;37.468;2023-05-10T14:42:45;7.38;;;2.20;;
49177;SDS011;35016;55.674;37.468;2023-05-10T14:45:13;10.30;;;2.42;;
49177;SDS011;35016;55.674;37.468;2023-05-10T14:47:40;6.35;;;2.45;;
49177;SDS011;35016;55.674;37.468;2023-05-10T14:50:07;8.25;;;2.33;;
49177;SDS011;35016;55.674;37.468;2023-05-10T14:52:35;6.72;;;2.30;;
49177;SDS011;35016;55.674;37.468;2023-05-10T14:55:03;6.25;;;1.95;;
49177;SDS011;35016;55.674;37.468;2023-05-10T14:57:30;7.10;;;2.65;;
49177;SDS011;35016;55.674;37.468;2023-05-10T14:59:57;7.35;;;2.10;;
49177;SDS011;35016;55.674;37.468;2023-05-10T15:02:25;5.18;;;1.92;;
49177;SDS011;35016;55.674;37.468;2023-05-10T15:04:52;6.75;;;2.72;;
49177;SDS011;35016;55.674;37.468;2023-05-10T15:07:20;8.88;;;2.35;;
49177;SDS011;35016;55.674;37.468;2023-05-10T15:09:47;6.93;;;2.35;;
49177;SDS011;35016;55.674;37.468;2023-05-10T15:12:15;7.80;;;2.72;;
49177;SDS011;35016;55.674;37.468;2023-05-10T15:14:42;5.57;;;2.15;;
49177;SDS011;35016;55.674;37.468;2023-05-10T15:17:09;7.55;;;2.58;;
49177;SDS011;35016;55.674;37.468;2023-05-10T15:19:36;6.50;;;2.15;;
49177;SDS011;35016;55.674;37.468;2023-05-10T15:22:04;9.68;;;2.90;;
49177;SDS011;35016;55.674;37.468;2023-05-10T15:24:31;5.70;;;2.65;;
49177;SDS011;35016;55.674;37.468;2023-05-10T15:26:59;7.22;;;2.28;;
49177;SDS011;35016;55.674;37.468;2023-05-10T15:29:27;6.18;;;1.98;;
49177;SDS011;35016;55.674;37.468;2023-05-10T15:31:54;5.78;;;2.42;;
49177;SDS011;35016;55.674;37.468;2023-05-10T15:34:21;12.55;;;2.85;;
49177;SDS011;35016;55.674;37.468;2023-05-10T15:36:48;7.90;;;2.58;;
49177;SDS011;35016;55.674;37.468;2023-05-10T15:39:15;5.57;;;2.00;;
49177;SDS011;35016;55.674;37.468;2023-05-10T15:41:42;8.05;;;2.33;;
49177;SDS011;35016;55.674;37.468;2023-05-10T15:44:10;7.35;;;2.28;;